createdAt,value
2022-12-25T00:02:17.013Z,3.17
2022-12-25T00:04:43.746Z,3.13
2022-12-25T00:09:37.042Z,2.38
2022-12-25T00:14:30.442Z,3.90
2022-12-25T00:16:57.155Z,2.58
2022-12-25T00:21:50.602Z,2.85
2022-12-25T00:24:17.325Z,6.70
2022-12-25T00:29:13.508Z,1.73
2022-12-25T00:31:40.463Z,2.30
2022-12-25T00:34:07.257Z,2.70
2022-12-25T00:36:41.193Z,3.28
2022-12-25T00:39:08.843Z,2.78
2022-12-25T00:41:54.550Z,2.03
2022-12-25T00:44:21.436Z,3.17
2022-12-25T00:49:14.901Z,2.47
2022-12-25T00:51:41.927Z,2.80
2022-12-25T00:54:08.952Z,3.38
2022-12-25T00:56:35.842Z,3.65
2022-12-25T00:59:02.567Z,3.45
2022-12-25T01:01:29.425Z,2.63
2022-12-25T01:03:56.318Z,4.35
2022-12-25T01:06:22.996Z,2.50
2022-12-25T01:11:36.334Z,2.60
2022-12-25T01:14:03.824Z,3.25
2022-12-25T01:16:30.609Z,2.97
2022-12-25T01:21:24.299Z,3.42
2022-12-25T01:23:52.444Z,3.00
2022-12-25T01:26:20.673Z,3.92
2022-12-25T01:28:47.382Z,1.90
2022-12-25T01:31:17.678Z,2.08
2022-12-25T01:33:45.239Z,2.63
2022-12-25T01:36:25.996Z,2.95
2022-12-25T01:38:53.918Z,1.60
2022-12-25T01:41:23.919Z,3.92
2022-12-25T01:44:06.093Z,2.50
2022-12-25T01:46:33.381Z,1.98
2022-12-25T01:49:08.452Z,2.45
2022-12-25T01:51:47.388Z,1.65
2022-12-25T01:54:36.144Z,1.70
2022-12-25T01:57:06.948Z,2.67
2022-12-25T01:59:33.706Z,2.78
2022-12-25T02:02:00.968Z,2.90
2022-12-25T02:04:40.145Z,2.85
2022-12-25T02:07:14.303Z,1.40
2022-12-25T02:09:41.513Z,2.95
2022-12-25T02:12:11.840Z,1.58
2022-12-25T02:14:38.757Z,1.27
2022-12-25T02:19:35.199Z,1.50
2022-12-25T02:22:40.419Z,1.77
2022-12-25T02:25:22.290Z,1.73
2022-12-25T02:28:00.960Z,3.33
2022-12-25T02:30:33.719Z,3.40
2022-12-25T02:33:25.711Z,2.08
2022-12-25T02:35:55.597Z,1.23
2022-12-25T02:38:34.957Z,1.48
2022-12-25T02:41:10.283Z,1.30
2022-12-25T02:44:16.501Z,3.92
2022-12-25T02:47:02.464Z,1.60
2022-12-25T02:49:49.861Z,3.67
2022-12-25T02:52:39.435Z,2.65
2022-12-25T02:55:28.515Z,1.83
2022-12-25T02:58:16.824Z,1.15
2022-12-25T03:01:06.143Z,1.42
2022-12-25T03:03:56.214Z,3.15
2022-12-25T03:06:43.269Z,1.40
2022-12-25T03:09:34.624Z,3.37
2022-12-25T03:12:28.551Z,1.58
2022-12-25T03:15:14.263Z,1.30
2022-12-25T03:17:41.524Z,1.63
2022-12-25T03:20:27.613Z,3.53
2022-12-25T03:23:13.295Z,1.65
2022-12-25T03:25:59.895Z,1.40
2022-12-25T03:28:26.656Z,2.72
2022-12-25T03:34:12.458Z,2.80
2022-12-25T03:36:58.498Z,5.60
2022-12-25T03:39:54.713Z,1.33
2022-12-25T03:42:49.631Z,1.30
2022-12-25T03:45:43.725Z,3.00
2022-12-25T03:48:13.018Z,1.00
2022-12-25T03:51:04.526Z,1.60
2022-12-25T03:54:05.027Z,2.92
2022-12-25T03:56:52.487Z,1.90
2022-12-25T03:59:40.707Z,2.60
2022-12-25T04:02:26.234Z,1.70
2022-12-25T04:05:11.591Z,2.92
2022-12-25T04:07:57.067Z,2.85
2022-12-25T04:10:42.871Z,2.00
2022-12-25T04:13:29.152Z,1.80
2022-12-25T04:16:14.695Z,1.95
2022-12-25T04:19:00.326Z,1.80
2022-12-25T04:21:45.758Z,1.58
2022-12-25T04:24:31.577Z,1.33
2022-12-25T04:27:17.009Z,2.17
2022-12-25T04:30:02.488Z,1.85
2022-12-25T04:32:47.966Z,1.90
2022-12-25T04:35:33.393Z,2.40
2022-12-25T04:38:00.127Z,2.78
2022-12-25T04:42:53.595Z,2.13
2022-12-25T04:47:46.985Z,1.15
2022-12-25T04:52:41.868Z,2.42
2022-12-25T04:55:10.346Z,1.95
2022-12-25T04:57:37.797Z,2.80
2022-12-25T05:00:05.940Z,1.60
2022-12-25T05:02:33.171Z,1.40
2022-12-25T05:05:00.057Z,2.33
2022-12-25T05:07:26.846Z,5.18
2022-12-25T05:12:20.263Z,1.77
2022-12-25T05:17:13.821Z,4.95
2022-12-25T05:19:40.463Z,5.40
2022-12-25T05:22:07.286Z,4.95
2022-12-25T05:27:00.641Z,3.28
2022-12-25T05:31:54.185Z,2.60
2022-12-25T05:34:20.887Z,6.63
2022-12-25T05:39:14.166Z,2.63
2022-12-25T05:44:07.853Z,1.92
2022-12-25T05:49:01.372Z,2.42
2022-12-25T05:53:54.715Z,4.82
2022-12-25T05:56:21.439Z,3.20
2022-12-25T05:58:48.323Z,5.05
2022-12-25T06:01:21.076Z,2.28
2022-12-25T06:03:48.243Z,4.10
2022-12-25T06:06:15.146Z,6.63
2022-12-25T06:08:42.395Z,2.22
2022-12-25T06:11:11.903Z,2.85
2022-12-25T06:13:38.639Z,2.60
2022-12-25T06:16:10.414Z,2.88
2022-12-25T06:18:41.725Z,2.50
2022-12-25T06:21:11.204Z,3.92
2022-12-25T06:23:39.015Z,2.13
2022-12-25T06:26:08.201Z,2.67
2022-12-25T06:28:35.332Z,2.58
2022-12-25T06:31:10.057Z,6.30
2022-12-25T06:33:37.262Z,4.72
2022-12-25T06:36:25.333Z,2.55
2022-12-25T06:38:53.190Z,6.20
2022-12-25T06:41:24.932Z,5.68
2022-12-25T06:43:54.516Z,2.33
2022-12-25T06:46:22.626Z,4.57
2022-12-25T06:48:50.152Z,2.63
2022-12-25T06:51:18.609Z,2.08
2022-12-25T06:53:46.702Z,3.53
2022-12-25T06:56:16.658Z,2.55
2022-12-25T06:58:48.673Z,5.22
2022-12-25T07:01:20.171Z,3.28
2022-12-25T07:03:50.001Z,1.80
2022-12-25T07:06:17.055Z,4.38
2022-12-25T07:08:43.766Z,4.28
2022-12-25T07:13:37.187Z,2.42
2022-12-25T07:18:32.434Z,3.05
2022-12-25T07:21:02.203Z,4.95
2022-12-25T07:23:28.968Z,1.83
2022-12-25T07:28:23.222Z,2.58
2022-12-25T07:33:17.728Z,1.87
2022-12-25T07:35:44.549Z,3.65
2022-12-25T07:40:38.500Z,4.28
2022-12-25T07:43:05.220Z,4.47
2022-12-25T07:48:04.363Z,3.30
2022-12-25T07:50:32.024Z,2.10
2022-12-25T07:52:59.011Z,4.32
2022-12-25T07:55:25.847Z,2.08
2022-12-25T08:00:19.774Z,1.85
2022-12-25T08:02:49.795Z,2.05
2022-12-25T08:05:17.121Z,2.55
2022-12-25T08:07:43.767Z,3.83
2022-12-25T08:10:10.891Z,5.13
2022-12-25T08:12:37.625Z,1.92
2022-12-25T08:17:31.434Z,4.05
2022-12-25T08:22:24.745Z,1.52
2022-12-25T08:24:51.420Z,1.25
2022-12-25T08:27:18.109Z,1.88
2022-12-25T08:29:45.018Z,1.98
2022-12-25T08:32:11.810Z,1.58
2022-12-25T08:37:05.313Z,2.08
2022-12-25T08:39:32.303Z,1.20
2022-12-25T08:41:58.965Z,4.32
2022-12-25T08:44:25.785Z,1.48
2022-12-25T08:46:52.933Z,1.55
2022-12-25T08:49:19.648Z,3.10
2022-12-25T08:54:13.133Z,2.65
2022-12-25T08:56:39.879Z,2.72
2022-12-25T09:01:33.510Z,3.15
2022-12-25T09:04:00.441Z,5.05
2022-12-25T09:06:27.222Z,2.28
2022-12-25T09:11:21.015Z,2.75
2022-12-25T09:13:48.687Z,2.08
2022-12-25T09:16:18.843Z,2.25
2022-12-25T09:18:45.980Z,3.45
2022-12-25T09:21:15.351Z,12.60
2022-12-25T09:23:42.564Z,4.07
2022-12-25T09:26:12.116Z,2.15
2022-12-25T09:28:38.926Z,2.38
2022-12-25T09:31:06.073Z,3.15
2022-12-25T09:33:33.062Z,3.45
2022-12-25T09:36:06.754Z,4.10
2022-12-25T09:38:34.757Z,6.80
2022-12-25T09:41:30.633Z,5.82
2022-12-25T09:44:42.289Z,3.53
2022-12-25T09:47:14.552Z,4.68
2022-12-25T09:49:54.131Z,5.45
2022-12-25T09:52:34.668Z,3.33
2022-12-25T09:55:17.903Z,4.18
2022-12-25T09:57:54.752Z,4.85
2022-12-25T10:00:24.045Z,6.80
2022-12-25T10:03:09.456Z,3.80
2022-12-25T10:06:11.569Z,3.55
2022-12-25T10:09:12.763Z,2.80
2022-12-25T10:12:31.004Z,2.75
2022-12-25T10:15:06.499Z,9.02
2022-12-25T10:17:51.169Z,5.68
2022-12-25T10:20:26.856Z,3.72
2022-12-25T10:22:59.271Z,9.10
2022-12-25T10:25:26.199Z,6.68
2022-12-25T10:27:57.064Z,5.10
2022-12-25T10:30:26.074Z,3.40
2022-12-25T10:32:54.840Z,2.80
2022-12-25T10:35:23.971Z,2.95
2022-12-25T10:38:00.893Z,3.58
2022-12-25T10:40:51.611Z,4.38
2022-12-25T10:43:32.404Z,2.20
2022-12-25T10:45:59.462Z,2.78
2022-12-25T10:48:29.269Z,2.65
2022-12-25T10:50:56.790Z,2.30
2022-12-25T10:53:25.978Z,1.65
2022-12-25T10:56:04.612Z,2.67
2022-12-25T10:58:32.475Z,3.13
2022-12-25T11:01:08.661Z,4.55
2022-12-25T11:03:38.817Z,4.30
2022-12-25T11:06:07.780Z,2.03
2022-12-25T11:08:34.935Z,3.00
2022-12-25T11:11:07.771Z,2.88
2022-12-25T11:13:39.710Z,1.40
2022-12-25T11:16:25.409Z,3.33
2022-12-25T11:18:54.139Z,2.42
2022-12-25T11:21:33.023Z,2.70
2022-12-25T11:24:05.441Z,4.57
2022-12-25T11:26:46.555Z,4.95
2022-12-25T11:29:44.834Z,3.13
2022-12-25T11:32:31.831Z,4.32
2022-12-25T11:35:01.102Z,7.75
2022-12-25T11:37:50.196Z,4.60
2022-12-25T11:40:25.154Z,3.40
2022-12-25T11:43:07.555Z,5.35
2022-12-25T11:45:39.196Z,3.75
2022-12-25T11:48:19.592Z,5.90
2022-12-25T11:50:51.922Z,3.95
2022-12-25T11:53:24.399Z,4.30
2022-12-25T11:55:55.548Z,3.40
2022-12-25T11:58:44.675Z,6.95
2022-12-25T12:01:34.539Z,3.90
2022-12-25T12:04:06.484Z,5.82
2022-12-25T12:06:44.063Z,5.82
2022-12-25T12:09:35.347Z,3.78
2022-12-25T12:12:29.502Z,4.53
2022-12-25T12:15:21.011Z,5.85
2022-12-25T12:17:47.688Z,3.10
2022-12-25T12:22:55.705Z,3.53
2022-12-25T12:25:22.941Z,2.95
2022-12-25T12:28:04.491Z,3.60
2022-12-25T12:30:37.209Z,4.10
2022-12-25T12:33:06.647Z,8.82
2022-12-25T12:35:37.058Z,3.97
2022-12-25T12:38:19.281Z,3.63
2022-12-25T12:41:00.799Z,3.67
2022-12-25T12:43:38.931Z,5.05
2022-12-25T12:46:35.748Z,5.78
2022-12-25T12:49:16.892Z,3.88
2022-12-25T12:51:43.634Z,4.15
2022-12-25T12:56:59.320Z,4.10
2022-12-25T12:59:31.106Z,3.78
2022-12-25T13:02:40.858Z,4.43
2022-12-25T13:05:34.966Z,5.95
2022-12-25T13:08:31.947Z,4.32
2022-12-25T13:11:31.208Z,3.13
2022-12-25T13:14:02.615Z,3.88
2022-12-25T13:16:36.888Z,6.13
2022-12-25T13:19:13.428Z,4.60
2022-12-25T13:21:40.346Z,3.33
2022-12-25T13:24:19.351Z,3.97
2022-12-25T13:26:46.176Z,3.97
2022-12-25T13:29:32.483Z,3.08
2022-12-25T13:32:01.246Z,3.90
2022-12-25T13:34:37.342Z,6.80
2022-12-25T13:37:19.303Z,3.85
2022-12-25T13:39:51.466Z,4.13
2022-12-25T13:42:22.303Z,3.53
2022-12-25T13:44:55.299Z,4.35
2022-12-25T13:47:31.439Z,3.45
2022-12-25T13:50:00.203Z,3.60
2022-12-25T13:52:34.826Z,4.85
2022-12-25T13:55:11.992Z,3.80
2022-12-25T14:00:16.911Z,3.90
2022-12-25T14:02:45.370Z,4.65
2022-12-25T14:05:34.720Z,3.20
2022-12-25T14:08:23.558Z,4.25
2022-12-25T14:10:52.325Z,4.95
2022-12-25T14:13:26.991Z,3.80
2022-12-25T14:15:55.197Z,4.50
2022-12-25T14:18:23.908Z,4.57
2022-12-25T14:21:07.130Z,4.45
2022-12-25T14:23:45.064Z,3.60
2022-12-25T14:26:17.141Z,4.38
2022-12-25T14:28:48.836Z,5.05
2022-12-25T14:31:15.820Z,6.13
2022-12-25T14:33:43.136Z,3.78
2022-12-25T14:36:13.199Z,9.05
2022-12-25T14:38:42.447Z,3.50
2022-12-25T14:41:33.294Z,4.60
2022-12-25T14:44:06.652Z,7.32
2022-12-25T14:46:34.310Z,4.28
2022-12-25T14:49:05.262Z,6.20
2022-12-25T14:51:35.119Z,6.65
2022-12-25T14:54:06.236Z,4.97
2022-12-25T14:56:39.120Z,5.45
2022-12-25T14:59:10.070Z,4.55
2022-12-25T15:01:41.241Z,3.72
2022-12-25T15:04:11.287Z,3.90
2022-12-25T15:07:10.711Z,5.45
2022-12-25T15:09:37.712Z,5.75
2022-12-25T15:12:05.278Z,5.47
2022-12-25T15:14:32.072Z,5.47
2022-12-25T15:22:04.019Z,5.65
2022-12-25T15:27:00.304Z,4.60
2022-12-25T15:30:00.178Z,6.85
2022-12-25T15:32:20.392Z,5.93
2022-12-25T15:34:49.785Z,9.75
2022-12-25T15:37:17.985Z,6.97
2022-12-25T15:39:45.266Z,9.80
2022-12-25T15:42:17.850Z,6.95
2022-12-25T15:44:45.445Z,6.43
2022-12-25T15:47:13.365Z,8.10
2022-12-25T15:49:40.786Z,10.88
2022-12-25T15:52:09.969Z,10.70
2022-12-25T15:54:36.729Z,10.25
2022-12-25T15:59:31.666Z,11.27
2022-12-25T16:02:00.813Z,10.73
2022-12-25T16:04:28.951Z,11.90
2022-12-25T16:06:56.476Z,15.85
2022-12-25T16:09:23.214Z,11.20
2022-12-25T16:14:17.057Z,10.13
2022-12-25T16:16:43.779Z,11.02
2022-12-25T16:19:10.521Z,7.70
2022-12-25T16:24:06.532Z,14.80
2022-12-25T16:26:34.449Z,12.88
2022-12-25T16:29:06.758Z,9.88
2022-12-25T16:31:35.327Z,11.20
2022-12-25T16:34:02.269Z,9.55
2022-12-25T16:38:55.673Z,9.00
2022-12-25T16:43:49.180Z,7.40
2022-12-25T16:48:44.839Z,6.38
2022-12-25T16:51:17.112Z,7.93
2022-12-25T16:53:44.624Z,7.07
2022-12-25T16:56:17.101Z,7.05
2022-12-25T16:58:48.169Z,8.35
2022-12-25T17:01:17.540Z,9.15
2022-12-25T17:03:45.456Z,7.85
2022-12-25T17:06:20.561Z,9.88
2022-12-25T17:08:47.680Z,7.90
2022-12-25T17:11:14.767Z,5.18
2022-12-25T17:13:41.516Z,14.40
2022-12-25T17:18:42.374Z,7.28
2022-12-25T17:21:09.477Z,8.55
2022-12-25T17:23:39.263Z,8.23
2022-12-25T17:26:06.691Z,7.75
2022-12-25T17:28:36.750Z,8.93
2022-12-25T17:31:05.472Z,7.43
2022-12-25T17:33:34.789Z,5.38
2022-12-25T17:36:04.339Z,5.82
2022-12-25T17:38:32.207Z,5.47
2022-12-25T17:41:00.363Z,4.10
2022-12-25T17:43:27.316Z,8.02
2022-12-25T17:45:54.086Z,3.92
2022-12-25T17:50:48.318Z,5.57
2022-12-25T17:53:15.053Z,6.60
2022-12-25T17:58:09.271Z,6.07
2022-12-25T18:00:36.874Z,6.28
2022-12-25T18:03:10.920Z,5.43
2022-12-25T18:05:38.438Z,7.10
2022-12-25T18:08:05.326Z,6.82
2022-12-25T18:10:38.920Z,8.57
2022-12-25T18:13:05.744Z,5.85
2022-12-25T18:17:59.657Z,6.40
2022-12-25T18:20:27.819Z,8.80
2022-12-25T18:22:54.793Z,35.55
2022-12-25T18:25:21.540Z,25.40
2022-12-25T18:30:15.015Z,11.00
2022-12-25T18:32:43.771Z,16.42
2022-12-25T18:35:10.676Z,13.10
2022-12-25T18:37:40.281Z,12.05
2022-12-25T18:40:07.905Z,9.98
2022-12-25T18:42:40.892Z,8.00
2022-12-25T18:45:12.434Z,7.97
2022-12-25T18:47:39.409Z,7.32
2022-12-25T18:50:07.939Z,7.47
2022-12-25T18:52:49.352Z,9.05
2022-12-25T18:55:18.297Z,7.07
2022-12-25T19:00:11.939Z,8.07
2022-12-25T19:02:38.820Z,7.60
2022-12-25T19:05:05.978Z,8.48
2022-12-25T19:07:32.951Z,16.67
2022-12-25T19:09:59.713Z,10.05
2022-12-25T19:14:53.415Z,6.18
2022-12-25T19:19:47.115Z,5.90
2022-12-25T19:22:13.827Z,8.23
2022-12-25T19:24:40.933Z,8.30
2022-12-25T19:27:07.648Z,6.47
2022-12-25T19:32:01.174Z,7.38
2022-12-25T19:34:28.075Z,6.03
2022-12-25T19:39:21.363Z,6.93
2022-12-25T19:41:48.369Z,8.80
2022-12-25T19:44:15.613Z,9.98
2022-12-25T19:46:42.806Z,9.60
2022-12-25T19:49:13.628Z,6.43
2022-12-25T19:51:46.086Z,8.35
2022-12-25T19:54:18.765Z,5.43
2022-12-25T19:56:46.163Z,4.72
2022-12-25T19:59:14.427Z,4.47
2022-12-25T20:01:41.720Z,20.38
2022-12-25T20:04:09.791Z,14.80
2022-12-25T20:06:38.869Z,9.55
2022-12-25T20:09:10.390Z,7.10
2022-12-25T20:11:38.076Z,6.63
2022-12-25T20:14:06.619Z,5.50
2022-12-25T20:16:35.823Z,3.90
2022-12-25T20:19:02.658Z,5.57
2022-12-25T20:21:29.987Z,3.67
2022-12-25T20:23:57.467Z,4.18
2022-12-25T20:26:27.191Z,5.03
2022-12-25T20:28:54.412Z,3.38
2022-12-25T20:31:27.429Z,3.13
2022-12-25T20:33:56.183Z,2.40
2022-12-25T20:36:23.207Z,3.30
2022-12-25T20:38:50.134Z,2.60
2022-12-25T20:41:28.449Z,3.13
2022-12-25T20:43:56.744Z,4.55
2022-12-25T20:46:24.614Z,4.80
2022-12-25T20:48:52.652Z,5.05
2022-12-25T20:51:21.865Z,3.22
2022-12-25T20:53:49.495Z,2.88
2022-12-25T20:56:17.749Z,3.40
2022-12-25T20:58:44.602Z,3.25
2022-12-25T21:06:07.665Z,5.57
2022-12-25T21:08:34.780Z,4.22
2022-12-25T21:11:02.551Z,2.80
2022-12-25T21:13:41.443Z,2.97
2022-12-25T21:16:15.458Z,3.83
2022-12-25T21:18:42.584Z,2.42
2022-12-25T21:21:09.352Z,1.58
2022-12-25T21:26:11.349Z,2.20
2022-12-25T21:28:38.243Z,2.42
2022-12-25T21:31:06.362Z,2.88
2022-12-25T21:33:52.188Z,5.05
2022-12-25T21:36:30.386Z,2.42
2022-12-25T21:39:06.077Z,2.25
2022-12-25T21:41:34.763Z,1.83
2022-12-25T21:44:02.194Z,3.90
2022-12-25T21:46:29.455Z,2.85
2022-12-25T21:48:56.929Z,2.20
2022-12-25T21:51:47.182Z,2.00
2022-12-25T21:54:15.141Z,2.70
2022-12-25T21:56:45.280Z,3.17
2022-12-25T21:59:20.956Z,3.50
2022-12-25T22:01:49.040Z,2.83
2022-12-25T22:04:17.574Z,2.38
2022-12-25T22:07:03.302Z,2.50
2022-12-25T22:09:30.164Z,2.90
2022-12-25T22:12:15.843Z,2.45
2022-12-25T22:14:54.723Z,2.65
2022-12-25T22:17:50.258Z,4.80
2022-12-25T22:20:23.464Z,3.20
2022-12-25T22:22:51.095Z,3.28
2022-12-25T22:25:18.913Z,4.22
2022-12-25T22:27:47.026Z,3.00
2022-12-25T22:30:17.182Z,2.38
2022-12-25T22:32:44.621Z,3.55
2022-12-25T22:35:12.224Z,4.22
2022-12-25T22:37:40.236Z,2.38
2022-12-25T22:40:08.048Z,3.05
2022-12-25T22:42:35.155Z,3.53
2022-12-25T22:45:02.354Z,4.00
2022-12-25T22:47:29.073Z,2.92
2022-12-25T22:52:22.662Z,3.28
2022-12-25T22:54:49.369Z,6.75
2022-12-25T22:57:16.043Z,3.75
2022-12-25T22:59:42.893Z,6.85
2022-12-25T23:04:36.533Z,3.22
2022-12-25T23:09:30.767Z,2.47
2022-12-25T23:14:41.621Z,4.45
2022-12-25T23:17:32.073Z,3.38
2022-12-25T23:20:19.088Z,2.60
2022-12-25T23:23:05.273Z,2.53
2022-12-25T23:25:52.797Z,6.88
2022-12-25T23:28:39.794Z,2.30
2022-12-25T23:31:07.245Z,3.47
2022-12-25T23:33:34.037Z,2.50
2022-12-25T23:36:00.781Z,4.75
2022-12-25T23:40:54.128Z,2.60
2022-12-25T23:43:21.056Z,4.00
2022-12-25T23:45:47.782Z,3.33
2022-12-25T23:50:41.030Z,4.15
2022-12-25T23:53:07.718Z,6.25
2022-12-25T23:58:01.234Z,4.75
